Terminal Aerodrome Forecast
Issued by NWS

Home | Current Version | Previous Version | Text Only | Print | Product List | Glossary On
Versions: 1 2 3 4 5 6 7 8 9 10 11 12 13 14
059
FTUS44 KLZK 310520
TAFBPK
TAF
KBPK 310520Z 3106/0106 VRB03KT P6SM VCSH SCT050 SCT250
      TEMPO 3106/3109 5SM BR
     FM310900 VRB03KT 5SM BR FEW005 SCT030 BKN050
      TEMPO 3110/3114 3SM BR BKN025
     FM311500 13006KT P6SM SCT020 BKN050 OVC250=

USA.gov is the U.S. government's official web portal to all federal, state and local government web resources and services.